Wan Hai 510 — 9VJJ8 — position and weather

sailwx.info

Track history (hours):
 
Tides and Currents Weather Stations Pressure Air Temp Water Temp Dewpoint Dewpoint Depression Visibility Wind Speed Wind Dir Waves Ship Positions

Wan Hai 510

Last reported at 2016-May-01 21:16 UTC. Time now 2016-May-06 07:24 UTC.
Position N 01°13' E 103°32'.

Length 269 m; draft 12.3 m.

Type: Ship. MMSI: 565741000.

Date/timePositionNaut miles runAvg speedWind from/ knotsBaromVisibWave heightAir tempDewpointWater temp
2016-May-01 21:16N 01°13' E 103°32'1318.8
2016-May-01 20:33N 01°09' E 103°44'9 9.1
2016-May-01 19:33N 01°16' E 103°50'0 0.5
2016-May-01 18:32N 01°16' E 103°50'0 0.0
2016-May-01 17:32N 01°16' E 103°50'0 0.0
2016-May-01 16:32N 01°16' E 103°50'0 0.0
2016-May-01 15:26N 01°16' E 103°50'0 0.0
2016-May-01 14:32N 01°16' E 103°50'0 0.0
2016-May-01 13:32N 01°16' E 103°50'0 0.0
2016-May-01 12:32N 01°16' E 103°50'0 0.0
2016-May-01 11:32N 01°16' E 103°50'0 0.0
2016-May-01 10:32N 01°16' E 103°50'3 2.8
2016-May-01 09:33N 01°14' E 103°52'5 4.5
2016-May-01 08:34N 01°15' E 103°57'  
2016-Apr-28 04:16N 22°17' E 114°06'3 0.2
2016-Apr-27 11:33N 22°20' E 114°07'1 0.8
2016-Apr-27 10:30N 22°20' E 114°08'0 0.0
2016-Apr-27 09:27N 22°20' E 114°08'0 0.0
2016-Apr-27 08:27N 22°20' E 114°08'0 0.0
2016-Apr-27 07:30N 22°20' E 114°08'0 0.0
2016-Apr-27 06:33N 22°20' E 114°08'0 0.0
2016-Apr-27 05:33N 22°20' E 114°08'0 0.0
2016-Apr-27 04:15N 22°20' E 114°08'0 0.0
2016-Apr-27 03:33N 22°20' E 114°08'0 0.0
2016-Apr-27 02:30N 22°20' E 114°08'0 0.0
2016-Apr-27 01:33N 22°20' E 114°08'0 0.4
2016-Apr-27 00:31N 22°20' E 114°07'12 8.6
2016-Apr-26 23:09N 22°10' E 114°13'7 0.4
2016-Apr-26 06:05N 22°06' E 114°19'1013.3
2016-Apr-26 05:19N 22°08' E 114°30'30715.2
2016-Apr-25 09:08N 22°32' E 120°01'814.3
2016-Apr-25 08:33N 22°32' E 120°09'9 9.1
2016-Apr-25 07:33N 22°33' E 120°19'2 0.5
2016-Apr-25 04:29N 22°35' E 120°18'0 0.0
2016-Apr-25 02:05N 22°35' E 120°18'0 0.0
2016-Apr-24 23:14N 22°35' E 120°18'0 0.0
2016-Apr-24 22:23N 22°35' E 120°18'0 0.0
2016-Apr-24 18:14N 22°35' E 120°18'0 0.0
2016-Apr-24 17:32N 22°35' E 120°18'0 0.0
2016-Apr-24 16:32N 22°35' E 120°18'0 0.0
2016-Apr-24 15:32N 22°35' E 120°18'0 0.0
2016-Apr-24 14:32N 22°35' E 120°18'0 0.0
2016-Apr-24 13:14N 22°35' E 120°18'0 0.1
2016-Apr-24 12:32N 22°35' E 120°18'0 0.0
2016-Apr-24 11:26N 22°35' E 120°18'0 0.1
2016-Apr-24 10:26N 22°35' E 120°18'0 0.1
2016-Apr-24 09:32N 22°35' E 120°18'0 0.0
2016-Apr-24 08:32N 22°35' E 120°18'0 0.0
2016-Apr-24 07:32N 22°35' E 120°18'0 0.1
2016-Apr-24 06:32N 22°35' E 120°18'0 0.0
2016-Apr-24 05:32N 22°35' E 120°18'0 0.1
2016-Apr-24 04:26N 22°35' E 120°18'2 2.0
2016-Apr-24 03:33N 22°33' E 120°18'5 5.2
2016-Apr-24 02:33N 22°31' E 120°13'2 1.6
2016-Apr-24 01:30N 22°29' E 120°12'3 3.4
2016-Apr-24 00:34N 22°26' E 120°10'  
Track history (hours):
 
Tides and Currents Weather Stations Pressure Air Temp Water Temp Dewpoint Dewpoint Depression Visibility Wind Speed Wind Dir Waves Ship Positions

Wan Hai 510

Last reported at 2016-May-01 21:16 UTC. Time now 2016-May-06 07:24 UTC.
Position N 01°13' E 103°32'.

Length 269 m; draft 12.3 m.

Type: Ship. MMSI: 565741000.

Date/timePositionNaut miles runAvg speedWind from/ knotsBaromVisibWave heightAir tempDewpointWater temp
2016-May-01 21:16N 01°13' E 103°32'1318.8
2016-May-01 20:33N 01°09' E 103°44'9 9.1
2016-May-01 19:33N 01°16' E 103°50'0 0.5
2016-May-01 18:32N 01°16' E 103°50'0 0.0
2016-May-01 17:32N 01°16' E 103°50'0 0.0
2016-May-01 16:32N 01°16' E 103°50'0 0.0
2016-May-01 15:26N 01°16' E 103°50'0 0.0
2016-May-01 14:32N 01°16' E 103°50'0 0.0
2016-May-01 13:32N 01°16' E 103°50'0 0.0
2016-May-01 12:32N 01°16' E 103°50'0 0.0
2016-May-01 11:32N 01°16' E 103°50'0 0.0
2016-May-01 10:32N 01°16' E 103°50'3 2.8
2016-May-01 09:33N 01°14' E 103°52'5 4.5
2016-May-01 08:34N 01°15' E 103°57'  
2016-Apr-28 04:16N 22°17' E 114°06'3 0.2
2016-Apr-27 11:33N 22°20' E 114°07'1 0.8
2016-Apr-27 10:30N 22°20' E 114°08'0 0.0
2016-Apr-27 09:27N 22°20' E 114°08'0 0.0
2016-Apr-27 08:27N 22°20' E 114°08'0 0.0
2016-Apr-27 07:30N 22°20' E 114°08'0 0.0
2016-Apr-27 06:33N 22°20' E 114°08'0 0.0
2016-Apr-27 05:33N 22°20' E 114°08'0 0.0
2016-Apr-27 04:15N 22°20' E 114°08'0 0.0
2016-Apr-27 03:33N 22°20' E 114°08'0 0.0
2016-Apr-27 02:30N 22°20' E 114°08'0 0.0
2016-Apr-27 01:33N 22°20' E 114°08'0 0.4
2016-Apr-27 00:31N 22°20' E 114°07'12 8.6
2016-Apr-26 23:09N 22°10' E 114°13'7 0.4
2016-Apr-26 06:05N 22°06' E 114°19'1013.3
2016-Apr-26 05:19N 22°08' E 114°30'30715.2
2016-Apr-25 09:08N 22°32' E 120°01'814.3
2016-Apr-25 08:33N 22°32' E 120°09'9 9.1
2016-Apr-25 07:33N 22°33' E 120°19'2 0.5
2016-Apr-25 04:29N 22°35' E 120°18'0 0.0
2016-Apr-25 02:05N 22°35' E 120°18'0 0.0
2016-Apr-24 23:14N 22°35' E 120°18'0 0.0
2016-Apr-24 22:23N 22°35' E 120°18'0 0.0
2016-Apr-24 18:14N 22°35' E 120°18'0 0.0
2016-Apr-24 17:32N 22°35' E 120°18'0 0.0
2016-Apr-24 16:32N 22°35' E 120°18'0 0.0
2016-Apr-24 15:32N 22°35' E 120°18'0 0.0
2016-Apr-24 14:32N 22°35' E 120°18'0 0.0
2016-Apr-24 13:14N 22°35' E 120°18'0 0.1
2016-Apr-24 12:32N 22°35' E 120°18'0 0.0
2016-Apr-24 11:26N 22°35' E 120°18'0 0.1
2016-Apr-24 10:26N 22°35' E 120°18'0 0.1
2016-Apr-24 09:32N 22°35' E 120°18'0 0.0
2016-Apr-24 08:32N 22°35' E 120°18'0 0.0
2016-Apr-24 07:32N 22°35' E 120°18'0 0.1
2016-Apr-24 06:32N 22°35' E 120°18'0 0.0
2016-Apr-24 05:32N 22°35' E 120°18'0 0.1
2016-Apr-24 04:26N 22°35' E 120°18'2 2.0
2016-Apr-24 03:33N 22°33' E 120°18'5 5.2
2016-Apr-24 02:33N 22°31' E 120°13'2 1.6
2016-Apr-24 01:30N 22°29' E 120°12'3 3.4
2016-Apr-24 00:34N 22°26' E 120°10'  

Dump ship's entire track history